sensor_id;sensor_type;location;lat;lon;timestamp;temperature;humidity
23377;DHT22;14353;46.070;13.222;2023-07-29T00:01:34;29.60;46.20
23377;DHT22;14353;46.070;13.222;2023-07-29T00:04:00;29.50;46.20
23377;DHT22;14353;46.070;13.222;2023-07-29T00:06:26;29.50;46.20
23377;DHT22;14353;46.070;13.222;2023-07-29T00:08:52;29.50;46.30
23377;DHT22;14353;46.070;13.222;2023-07-29T00:11:18;29.60;46.30
23377;DHT22;14353;46.070;13.222;2023-07-29T00:13:44;29.50;46.20
23377;DHT22;14353;46.070;13.222;2023-07-29T00:16:09;29.50;46.30
23377;DHT22;14353;46.070;13.222;2023-07-29T00:18:35;29.50;46.30
23377;DHT22;14353;46.070;13.222;2023-07-29T00:21:01;29.50;46.30
23377;DHT22;14353;46.070;13.222;2023-07-29T00:23:27;29.50;46.30
23377;DHT22;14353;46.070;13.222;2023-07-29T00:25:53;29.50;46.40
23377;DHT22;14353;46.070;13.222;2023-07-29T00:28:18;29.50;46.40
23377;DHT22;14353;46.070;13.222;2023-07-29T00:30:44;29.50;46.40
23377;DHT22;14353;46.070;13.222;2023-07-29T00:33:10;29.50;46.40
23377;DHT22;14353;46.070;13.222;2023-07-29T00:35:35;29.50;46.40
23377;DHT22;14353;46.070;13.222;2023-07-29T00:38:01;29.50;46.40
23377;DHT22;14353;46.070;13.222;2023-07-29T00:40:28;29.50;46.40
23377;DHT22;14353;46.070;13.222;2023-07-29T00:42:54;29.50;46.50
23377;DHT22;14353;46.070;13.222;2023-07-29T00:45:20;29.50;46.50
23377;DHT22;14353;46.070;13.222;2023-07-29T00:47:46;29.50;46.50
23377;DHT22;14353;46.070;13.222;2023-07-29T00:50:13;29.50;46.50
23377;DHT22;14353;46.070;13.222;2023-07-29T00:52:40;29.50;46.50
23377;DHT22;14353;46.070;13.222;2023-07-29T00:55:07;29.50;46.60
23377;DHT22;14353;46.070;13.222;2023-07-29T00:57:33;29.50;46.70
23377;DHT22;14353;46.070;13.222;2023-07-29T01:00:00;29.50;46.70
23377;DHT22;14353;46.070;13.222;2023-07-29T01:02:26;29.50;46.60
23377;DHT22;14353;46.070;13.222;2023-07-29T01:04:57;29.40;46.60
23377;DHT22;14353;46.070;13.222;2023-07-29T01:12:49;29.40;46.60
23377;DHT22;14353;46.070;13.222;2023-07-29T01:15:31;29.50;46.70
23377;DHT22;14353;46.070;13.222;2023-07-29T01:18:05;29.40;46.70
23377;DHT22;14353;46.070;13.222;2023-07-29T01:20:34;29.40;46.70
23377;DHT22;14353;46.070;13.222;2023-07-29T01:23:00;29.40;46.70
23377;DHT22;14353;46.070;13.222;2023-07-29T01:25:26;29.40;46.70
23377;DHT22;14353;46.070;13.222;2023-07-29T01:27:52;29.40;46.70
23377;DHT22;14353;46.070;13.222;2023-07-29T01:30:19;29.40;46.70
23377;DHT22;14353;46.070;13.222;2023-07-29T01:37:49;29.40;46.80
23377;DHT22;14353;46.070;13.222;2023-07-29T01:40:17;29.40;46.80
23377;DHT22;14353;46.070;13.222;2023-07-29T01:42:43;29.40;46.80
23377;DHT22;14353;46.070;13.222;2023-07-29T01:45:11;29.40;46.90
23377;DHT22;14353;46.070;13.222;2023-07-29T01:47:36;29.40;46.90
23377;DHT22;14353;46.070;13.222;2023-07-29T01:50:06;29.40;46.90
23377;DHT22;14353;46.070;13.222;2023-07-29T01:52:32;29.40;46.90
23377;DHT22;14353;46.070;13.222;2023-07-29T01:54:57;29.40;47.00
23377;DHT22;14353;46.070;13.222;2023-07-29T01:57:23;29.40;47.00
23377;DHT22;14353;46.070;13.222;2023-07-29T01:59:49;29.40;47.10
23377;DHT22;14353;46.070;13.222;2023-07-29T02:02:14;29.40;47.20
23377;DHT22;14353;46.070;13.222;2023-07-29T02:04:40;29.30;47.20
23377;DHT22;14353;46.070;13.222;2023-07-29T02:07:06;29.30;47.20
23377;DHT22;14353;46.070;13.222;2023-07-29T02:09:32;29.30;47.30
23377;DHT22;14353;46.070;13.222;2023-07-29T02:11:57;29.30;47.40
23377;DHT22;14353;46.070;13.222;2023-07-29T02:14:23;29.30;47.40
23377;DHT22;14353;46.070;13.222;2023-07-29T02:16:49;29.30;47.50
23377;DHT22;14353;46.070;13.222;2023-07-29T02:19:15;29.30;47.50
23377;DHT22;14353;46.070;13.222;2023-07-29T02:21:41;29.20;47.50
23377;DHT22;14353;46.070;13.222;2023-07-29T02:24:07;29.30;47.50
23377;DHT22;14353;46.070;13.222;2023-07-29T02:26:32;29.30;47.60
23377;DHT22;14353;46.070;13.222;2023-07-29T02:28:58;29.20;47.60
23377;DHT22;14353;46.070;13.222;2023-07-29T02:31:24;29.20;47.60
23377;DHT22;14353;46.070;13.222;2023-07-29T02:33:51;29.20;47.60
23377;DHT22;14353;46.070;13.222;2023-07-29T02:36:16;29.20;47.70
23377;DHT22;14353;46.070;13.222;2023-07-29T02:38:42;29.20;47.70
23377;DHT22;14353;46.070;13.222;2023-07-29T02:41:09;29.20;47.70
23377;DHT22;14353;46.070;13.222;2023-07-29T02:43:36;29.20;47.70
23377;DHT22;14353;46.070;13.222;2023-07-29T02:46:02;29.20;47.80
23377;DHT22;14353;46.070;13.222;2023-07-29T02:48:28;29.20;47.90
23377;DHT22;14353;46.070;13.222;2023-07-29T02:50:54;29.20;47.80
23377;DHT22;14353;46.070;13.222;2023-07-29T02:53:22;29.20;47.90
23377;DHT22;14353;46.070;13.222;2023-07-29T02:55:48;29.20;47.90
23377;DHT22;14353;46.070;13.222;2023-07-29T02:58:14;29.20;48.00
23377;DHT22;14353;46.070;13.222;2023-07-29T03:00:39;29.10;47.90
23377;DHT22;14353;46.070;13.222;2023-07-29T03:03:07;29.20;47.90
23377;DHT22;14353;46.070;13.222;2023-07-29T03:05:33;29.20;48.00
23377;DHT22;14353;46.070;13.222;2023-07-29T03:07:59;29.20;48.00
23377;DHT22;14353;46.070;13.222;2023-07-29T03:10:25;29.20;48.00
23377;DHT22;14353;46.070;13.222;2023-07-29T03:12:53;29.20;48.00
23377;DHT22;14353;46.070;13.222;2023-07-29T03:15:18;29.20;48.10
23377;DHT22;14353;46.070;13.222;2023-07-29T03:17:46;29.20;48.10
23377;DHT22;14353;46.070;13.222;2023-07-29T03:20:12;29.10;48.00
23377;DHT22;14353;46.070;13.222;2023-07-29T03:22:37;29.10;48.00
23377;DHT22;14353;46.070;13.222;2023-07-29T03:25:03;29.10;48.00
23377;DHT22;14353;46.070;13.222;2023-07-29T03:27:31;29.10;48.00
23377;DHT22;14353;46.070;13.222;2023-07-29T03:29:57;29.10;48.10
23377;DHT22;14353;46.070;13.222;2023-07-29T03:32:22;29.10;48.70
23377;DHT22;14353;46.070;13.222;2023-07-29T03:34:48;29.10;48.10
23377;DHT22;14353;46.070;13.222;2023-07-29T03:37:14;29.10;48.10
23377;DHT22;14353;46.070;13.222;2023-07-29T03:39:39;29.10;48.10
23377;DHT22;14353;46.070;13.222;2023-07-29T03:42:05;29.10;48.10
23377;DHT22;14353;46.070;13.222;2023-07-29T03:44:31;29.10;48.20
23377;DHT22;14353;46.070;13.222;2023-07-29T03:46:57;29.10;48.20
23377;DHT22;14353;46.070;13.222;2023-07-29T03:49:22;29.10;48.20
23377;DHT22;14353;46.070;13.222;2023-07-29T03:51:48;29.10;48.20
23377;DHT22;14353;46.070;13.222;2023-07-29T03:54:14;29.10;48.20
23377;DHT22;14353;46.070;13.222;2023-07-29T03:56:39;29.10;48.30
23377;DHT22;14353;46.070;13.222;2023-07-29T03:59:05;29.10;48.30
23377;DHT22;14353;46.070;13.222;2023-07-29T04:01:31;29.10;48.30
23377;DHT22;14353;46.070;13.222;2023-07-29T04:03:58;29.10;48.30
23377;DHT22;14353;46.070;13.222;2023-07-29T04:06:24;29.10;48.30
23377;DHT22;14353;46.070;13.222;2023-07-29T04:08:50;29.10;48.30
23377;DHT22;14353;46.070;13.222;2023-07-29T04:11:16;29.10;48.40
23377;DHT22;14353;46.070;13.222;2023-07-29T04:13:41;29.10;48.40
23377;DHT22;14353;46.070;13.222;2023-07-29T04:16:07;29.10;48.40
23377;DHT22;14353;46.070;13.222;2023-07-29T04:18:33;29.10;48.40
23377;DHT22;14353;46.070;13.222;2023-07-29T04:20:59;29.10;48.50
23377;DHT22;14353;46.070;13.222;2023-07-29T04:23:24;29.10;48.40
23377;DHT22;14353;46.070;13.222;2023-07-29T04:25:50;29.10;48.50
23377;DHT22;14353;46.070;13.222;2023-07-29T04:28:17;29.10;48.50
23377;DHT22;14353;46.070;13.222;2023-07-29T04:30:42;29.10;48.50
23377;DHT22;14353;46.070;13.222;2023-07-29T04:33:08;29.10;48.50
23377;DHT22;14353;46.070;13.222;2023-07-29T04:35:34;29.10;48.60
23377;DHT22;14353;46.070;13.222;2023-07-29T04:37:59;29.00;48.50
23377;DHT22;14353;46.070;13.222;2023-07-29T04:40:25;29.00;48.50
23377;DHT22;14353;46.070;13.222;2023-07-29T04:42:51;29.00;48.50
23377;DHT22;14353;46.070;13.222;2023-07-29T04:45:17;29.10;48.60
23377;DHT22;14353;46.070;13.222;2023-07-29T04:47:43;29.10;48.60
23377;DHT22;14353;46.070;13.222;2023-07-29T04:50:09;29.00;48.50
23377;DHT22;14353;46.070;13.222;2023-07-29T04:52:34;29.10;48.50
23377;DHT22;14353;46.070;13.222;2023-07-29T04:55:00;29.10;48.50
23377;DHT22;14353;46.070;13.222;2023-07-29T04:57:26;29.10;48.60
23377;DHT22;14353;46.070;13.222;2023-07-29T04:59:51;29.10;48.60
23377;DHT22;14353;46.070;13.222;2023-07-29T05:02:17;29.10;48.60
23377;DHT22;14353;46.070;13.222;2023-07-29T05:04:43;29.10;48.50
23377;DHT22;14353;46.070;13.222;2023-07-29T05:07:08;29.10;48.60
23377;DHT22;14353;46.070;13.222;2023-07-29T05:09:34;29.00;48.50
23377;DHT22;14353;46.070;13.222;2023-07-29T05:12:00;29.10;48.50
23377;DHT22;14353;46.070;13.222;2023-07-29T05:14:26;29.10;49.20
23377;DHT22;14353;46.070;13.222;2023-07-29T05:16:54;29.10;48.50
23377;DHT22;14353;46.070;13.222;2023-07-29T05:19:20;29.10;48.50
23377;DHT22;14353;46.070;13.222;2023-07-29T05:21:46;29.10;48.50
23377;DHT22;14353;46.070;13.222;2023-07-29T05:24:12;29.10;48.50
23377;DHT22;14353;46.070;13.222;2023-07-29T05:26:37;29.10;48.50
23377;DHT22;14353;46.070;13.222;2023-07-29T05:29:03;29.10;48.50
23377;DHT22;14353;46.070;13.222;2023-07-29T05:31:29;29.10;48.50
23377;DHT22;14353;46.070;13.222;2023-07-29T05:33:55;29.10;48.50
23377;DHT22;14353;46.070;13.222;2023-07-29T05:36:20;29.10;48.50
23377;DHT22;14353;46.070;13.222;2023-07-29T05:38:46;29.10;48.50
23377;DHT22;14353;46.070;13.222;2023-07-29T05:41:12;29.10;48.50
23377;DHT22;14353;46.070;13.222;2023-07-29T05:43:37;29.10;48.50
23377;DHT22;14353;46.070;13.222;2023-07-29T05:46:03;29.10;48.50
23377;DHT22;14353;46.070;13.222;2023-07-29T05:48:29;29.20;48.50
23377;DHT22;14353;46.070;13.222;2023-07-29T05:50:54;29.20;48.50
23377;DHT22;14353;46.070;13.222;2023-07-29T05:53:20;29.20;48.50
23377;DHT22;14353;46.070;13.222;2023-07-29T05:55:46;29.20;48.50
23377;DHT22;14353;46.070;13.222;2023-07-29T05:58:11;29.20;48.40
23377;DHT22;14353;46.070;13.222;2023-07-29T06:00:37;29.20;48.50
23377;DHT22;14353;46.070;13.222;2023-07-29T06:03:03;29.20;48.50
23377;DHT22;14353;46.070;13.222;2023-07-29T06:05:28;29.20;48.40
23377;DHT22;14353;46.070;13.222;2023-07-29T06:07:57;29.20;48.40
23377;DHT22;14353;46.070;13.222;2023-07-29T06:10:23;29.30;48.40
23377;DHT22;14353;46.070;13.222;2023-07-29T06:12:49;29.20;49.00
23377;DHT22;14353;46.070;13.222;2023-07-29T06:15:18;29.30;48.40
23377;DHT22;14353;46.070;13.222;2023-07-29T06:17:47;29.20;48.40
23377;DHT22;14353;46.070;13.222;2023-07-29T06:20:12;29.20;48.30
23377;DHT22;14353;46.070;13.222;2023-07-29T06:22:38;29.30;48.40
23377;DHT22;14353;46.070;13.222;2023-07-29T06:25:04;29.30;48.30
23377;DHT22;14353;46.070;13.222;2023-07-29T06:27:30;29.30;48.30
23377;DHT22;14353;46.070;13.222;2023-07-29T06:29:55;29.30;48.30
23377;DHT22;14353;46.070;13.222;2023-07-29T06:32:21;29.30;48.30
23377;DHT22;14353;46.070;13.222;2023-07-29T06:34:47;29.30;48.30
23377;DHT22;14353;46.070;13.222;2023-07-29T06:37:12;29.30;48.30
23377;DHT22;14353;46.070;13.222;2023-07-29T06:39:38;29.30;48.30
23377;DHT22;14353;46.070;13.222;2023-07-29T06:42:04;29.30;48.30
23377;DHT22;14353;46.070;13.222;2023-07-29T06:44:29;29.30;48.20
23377;DHT22;14353;46.070;13.222;2023-07-29T06:46:55;29.30;48.30
23377;DHT22;14353;46.070;13.222;2023-07-29T06:49:21;29.30;48.20
23377;DHT22;14353;46.070;13.222;2023-07-29T06:51:46;29.30;48.20
23377;DHT22;14353;46.070;13.222;2023-07-29T06:54:12;29.30;48.10
23377;DHT22;14353;46.070;13.222;2023-07-29T06:56:38;29.40;48.10
23377;DHT22;14353;46.070;13.222;2023-07-29T06:59:03;29.40;48.80
23377;DHT22;14353;46.070;13.222;2023-07-29T07:01:29;29.40;48.10
23377;DHT22;14353;46.070;13.222;2023-07-29T07:03:55;29.40;48.10
23377;DHT22;14353;46.070;13.222;2023-07-29T07:06:23;29.40;48.00
23377;DHT22;14353;46.070;13.222;2023-07-29T07:08:50;29.40;48.00
23377;DHT22;14353;46.070;13.222;2023-07-29T07:11:16;29.50;48.00
23377;DHT22;14353;46.070;13.222;2023-07-29T07:13:41;29.50;48.00
23377;DHT22;14353;46.070;13.222;2023-07-29T07:16:07;29.50;48.00
23377;DHT22;14353;46.070;13.222;2023-07-29T07:18:33;29.50;47.90
23377;DHT22;14353;46.070;13.222;2023-07-29T07:20:58;29.50;48.00
23377;DHT22;14353;46.070;13.222;2023-07-29T07:23:24;29.50;47.90
23377;DHT22;14353;46.070;13.222;2023-07-29T07:25:50;29.50;48.00
23377;DHT22;14353;46.070;13.222;2023-07-29T07:28:15;29.50;47.90
23377;DHT22;14353;46.070;13.222;2023-07-29T07:30:41;29.50;47.90
23377;DHT22;14353;46.070;13.222;2023-07-29T07:33:07;29.50;47.90
23377;DHT22;14353;46.070;13.222;2023-07-29T07:35:33;29.50;47.90
23377;DHT22;14353;46.070;13.222;2023-07-29T07:37:58;29.50;47.90
23377;DHT22;14353;46.070;13.222;2023-07-29T07:40:27;29.50;47.80
23377;DHT22;14353;46.070;13.222;2023-07-29T07:42:53;29.50;47.80
23377;DHT22;14353;46.070;13.222;2023-07-29T07:45:19;29.50;47.80
23377;DHT22;14353;46.070;13.222;2023-07-29T07:47:45;29.50;47.80
23377;DHT22;14353;46.070;13.222;2023-07-29T07:50:10;29.60;47.80
23377;DHT22;14353;46.070;13.222;2023-07-29T07:52:36;29.60;47.80
23377;DHT22;14353;46.070;13.222;2023-07-29T07:55:02;29.60;47.70
23377;DHT22;14353;46.070;13.222;2023-07-29T07:57:27;29.60;47.80
23377;DHT22;14353;46.070;13.222;2023-07-29T07:59:53;29.60;47.70
23377;DHT22;14353;46.070;13.222;2023-07-29T08:02:19;29.60;47.70
23377;DHT22;14353;46.070;13.222;2023-07-29T08:04:45;29.60;47.70
23377;DHT22;14353;46.070;13.222;2023-07-29T08:07:11;29.60;47.70
23377;DHT22;14353;46.070;13.222;2023-07-29T08:09:37;29.60;47.70
23377;DHT22;14353;46.070;13.222;2023-07-29T08:12:03;29.60;47.70
23377;DHT22;14353;46.070;13.222;2023-07-29T08:14:28;29.60;48.40
23377;DHT22;14353;46.070;13.222;2023-07-29T08:16:54;29.60;47.70
23377;DHT22;14353;46.070;13.222;2023-07-29T08:19:20;29.60;47.60
23377;DHT22;14353;46.070;13.222;2023-07-29T08:21:45;29.70;47.60
23377;DHT22;14353;46.070;13.222;2023-07-29T08:24:11;29.70;47.60
23377;DHT22;14353;46.070;13.222;2023-07-29T08:26:37;29.70;47.60
23377;DHT22;14353;46.070;13.222;2023-07-29T08:29:03;29.70;47.60
23377;DHT22;14353;46.070;13.222;2023-07-29T08:31:28;29.70;47.60
23377;DHT22;14353;46.070;13.222;2023-07-29T08:33:54;29.70;47.60
23377;DHT22;14353;46.070;13.222;2023-07-29T08:36:19;29.70;47.60
23377;DHT22;14353;46.070;13.222;2023-07-29T08:38:45;29.70;47.50
23377;DHT22;14353;46.070;13.222;2023-07-29T08:41:28;29.70;47.50
23377;DHT22;14353;46.070;13.222;2023-07-29T08:44:12;29.70;47.50
23377;DHT22;14353;46.070;13.222;2023-07-29T08:46:39;29.70;47.50
23377;DHT22;14353;46.070;13.222;2023-07-29T08:49:05;29.70;47.50
23377;DHT22;14353;46.070;13.222;2023-07-29T08:51:31;29.70;47.50
23377;DHT22;14353;46.070;13.222;2023-07-29T08:53:59;29.70;47.40
23377;DHT22;14353;46.070;13.222;2023-07-29T08:56:25;29.70;47.40
23377;DHT22;14353;46.070;13.222;2023-07-29T08:58:52;29.70;47.30
23377;DHT22;14353;46.070;13.222;2023-07-29T09:01:17;29.80;47.40
23377;DHT22;14353;46.070;13.222;2023-07-29T09:03:43;29.80;47.30
23377;DHT22;14353;46.070;13.222;2023-07-29T09:06:09;29.80;47.40
23377;DHT22;14353;46.070;13.222;2023-07-29T09:08:35;29.80;47.30
23377;DHT22;14353;46.070;13.222;2023-07-29T09:11:01;29.80;47.30
23377;DHT22;14353;46.070;13.222;2023-07-29T09:13:27;29.80;47.30
23377;DHT22;14353;46.070;13.222;2023-07-29T09:15:57;29.80;47.30
23377;DHT22;14353;46.070;13.222;2023-07-29T09:18:23;29.80;47.20
23377;DHT22;14353;46.070;13.222;2023-07-29T09:20:51;29.80;47.20
23377;DHT22;14353;46.070;13.222;2023-07-29T09:23:17;29.80;47.20
23377;DHT22;14353;46.070;13.222;2023-07-29T09:25:42;29.80;47.10
23377;DHT22;14353;46.070;13.222;2023-07-29T09:28:13;29.90;47.20
23377;DHT22;14353;46.070;13.222;2023-07-29T09:30:40;29.90;47.10
23377;DHT22;14353;46.070;13.222;2023-07-29T09:33:07;29.90;47.00
23377;DHT22;14353;46.070;13.222;2023-07-29T09:35:34;29.90;47.00
23377;DHT22;14353;46.070;13.222;2023-07-29T09:38:03;29.90;47.00
23377;DHT22;14353;46.070;13.222;2023-07-29T09:40:40;29.90;46.90
23377;DHT22;14353;46.070;13.222;2023-07-29T09:43:07;29.90;46.90
23377;DHT22;14353;46.070;13.222;2023-07-29T09:45:35;29.90;46.90
23377;DHT22;14353;46.070;13.222;2023-07-29T09:48:01;30.00;46.90
23377;DHT22;14353;46.070;13.222;2023-07-29T09:50:28;30.00;46.80
23377;DHT22;14353;46.070;13.222;2023-07-29T09:52:55;30.00;47.40
23377;DHT22;14353;46.070;13.222;2023-07-29T09:55:24;30.00;46.70
23377;DHT22;14353;46.070;13.222;2023-07-29T09:57:57;30.00;46.70
23377;DHT22;14353;46.070;13.222;2023-07-29T10:00:29;30.00;46.70
23377;DHT22;14353;46.070;13.222;2023-07-29T10:02:56;30.00;46.60
23377;DHT22;14353;46.070;13.222;2023-07-29T10:05:22;30.00;46.60
23377;DHT22;14353;46.070;13.222;2023-07-29T10:07:51;30.10;46.70
23377;DHT22;14353;46.070;13.222;2023-07-29T10:10:17;30.10;46.60
23377;DHT22;14353;46.070;13.222;2023-07-29T10:12:43;30.10;46.60
23377;DHT22;14353;46.070;13.222;2023-07-29T10:15:09;30.00;46.50
23377;DHT22;14353;46.070;13.222;2023-07-29T10:17:37;30.10;46.60
23377;DHT22;14353;46.070;13.222;2023-07-29T10:20:07;30.10;46.50
23377;DHT22;14353;46.070;13.222;2023-07-29T10:22:39;30.10;46.50
23377;DHT22;14353;46.070;13.222;2023-07-29T10:25:08;30.20;46.50
23377;DHT22;14353;46.070;13.222;2023-07-29T10:27:43;30.20;46.40
23377;DHT22;14353;46.070;13.222;2023-07-29T10:30:11;30.20;46.40
23377;DHT22;14353;46.070;13.222;2023-07-29T10:32:38;30.20;46.40
23377;DHT22;14353;46.070;13.222;2023-07-29T10:35:04;30.20;46.50
23377;DHT22;14353;46.070;13.222;2023-07-29T10:37:30;30.20;46.40
23377;DHT22;14353;46.070;13.222;2023-07-29T10:39:56;30.20;46.30
23377;DHT22;14353;46.070;13.222;2023-07-29T10:42:22;30.20;46.30
23377;DHT22;14353;46.070;13.222;2023-07-29T10:44:50;30.20;46.30
23377;DHT22;14353;46.070;13.222;2023-07-29T10:47:27;30.20;46.20
23377;DHT22;14353;46.070;13.222;2023-07-29T10:49:58;30.20;46.20
23377;DHT22;14353;46.070;13.222;2023-07-29T10:55:00;30.30;46.30
23377;DHT22;14353;46.070;13.222;2023-07-29T10:57:36;30.30;46.30
23377;DHT22;14353;46.070;13.222;2023-07-29T11:00:04;30.30;46.20
23377;DHT22;14353;46.070;13.222;2023-07-29T11:02:35;30.30;46.20
23377;DHT22;14353;46.070;13.222;2023-07-29T11:05:18;30.30;46.20
23377;DHT22;14353;46.070;13.222;2023-07-29T11:07:48;30.30;46.20
23377;DHT22;14353;46.070;13.222;2023-07-29T11:10:14;30.30;46.20
23377;DHT22;14353;46.070;13.222;2023-07-29T11:12:50;30.30;46.10
23377;DHT22;14353;46.070;13.222;2023-07-29T11:15:27;30.30;46.10
23377;DHT22;14353;46.070;13.222;2023-07-29T11:17:58;30.40;46.20
23377;DHT22;14353;46.070;13.222;2023-07-29T11:20:28;30.30;46.00
23377;DHT22;14353;46.070;13.222;2023-07-29T11:22:56;30.40;46.00
23377;DHT22;14353;46.070;13.222;2023-07-29T11:25:23;30.40;46.00
23377;DHT22;14353;46.070;13.222;2023-07-29T11:27:51;30.40;46.00
23377;DHT22;14353;46.070;13.222;2023-07-29T11:30:17;30.40;46.00
23377;DHT22;14353;46.070;13.222;2023-07-29T11:32:44;30.40;46.00
23377;DHT22;14353;46.070;13.222;2023-07-29T11:37:39;30.40;45.90
23377;DHT22;14353;46.070;13.222;2023-07-29T11:40:05;30.50;45.90
23377;DHT22;14353;46.070;13.222;2023-07-29T11:42:33;30.50;45.90
23377;DHT22;14353;46.070;13.222;2023-07-29T11:45:00;30.50;45.90
23377;DHT22;14353;46.070;13.222;2023-07-29T11:47:25;30.50;45.90
23377;DHT22;14353;46.070;13.222;2023-07-29T11:49:51;30.50;45.80
23377;DHT22;14353;46.070;13.222;2023-07-29T11:52:18;30.50;45.80
23377;DHT22;14353;46.070;13.222;2023-07-29T11:54:48;30.50;45.70
23377;DHT22;14353;46.070;13.222;2023-07-29T11:57:14;30.60;45.70
23377;DHT22;14353;46.070;13.222;2023-07-29T11:59:41;30.60;45.70
23377;DHT22;14353;46.070;13.222;2023-07-29T12:02:15;30.60;45.70
23377;DHT22;14353;46.070;13.222;2023-07-29T12:04:42;30.60;45.70
23377;DHT22;14353;46.070;13.222;2023-07-29T12:07:08;30.60;45.70
23377;DHT22;14353;46.070;13.222;2023-07-29T12:09:35;30.60;45.70
23377;DHT22;14353;46.070;13.222;2023-07-29T12:12:03;30.60;45.50
23377;DHT22;14353;46.070;13.222;2023-07-29T12:14:29;30.60;45.70
23377;DHT22;14353;46.070;13.222;2023-07-29T12:16:55;30.70;45.70
23377;DHT22;14353;46.070;13.222;2023-07-29T12:19:21;30.60;45.70
23377;DHT22;14353;46.070;13.222;2023-07-29T12:21:48;30.60;45.60
23377;DHT22;14353;46.070;13.222;2023-07-29T12:24:15;30.60;45.60
23377;DHT22;14353;46.070;13.222;2023-07-29T12:26:41;30.70;45.60
23377;DHT22;14353;46.070;13.222;2023-07-29T12:29:17;30.70;45.50
23377;DHT22;14353;46.070;13.222;2023-07-29T12:31:45;30.70;45.50
23377;DHT22;14353;46.070;13.222;2023-07-29T12:34:21;30.70;45.50
23377;DHT22;14353;46.070;13.222;2023-07-29T12:36:48;30.70;45.40
23377;DHT22;14353;46.070;13.222;2023-07-29T12:39:22;30.80;45.40
23377;DHT22;14353;46.070;13.222;2023-07-29T12:41:49;30.80;45.40
23377;DHT22;14353;46.070;13.222;2023-07-29T12:44:15;30.80;45.40
23377;DHT22;14353;46.070;13.222;2023-07-29T12:46:41;30.80;45.30
23377;DHT22;14353;46.070;13.222;2023-07-29T12:49:07;30.80;45.30
23377;DHT22;14353;46.070;13.222;2023-07-29T12:51:33;30.80;45.30
23377;DHT22;14353;46.070;13.222;2023-07-29T12:53:59;30.80;45.30
23377;DHT22;14353;46.070;13.222;2023-07-29T12:56:25;30.80;45.30
23377;DHT22;14353;46.070;13.222;2023-07-29T12:58:52;30.80;45.30
23377;DHT22;14353;46.070;13.222;2023-07-29T13:01:18;30.80;45.30
23377;DHT22;14353;46.070;13.222;2023-07-29T13:03:48;30.80;45.30
23377;DHT22;14353;46.070;13.222;2023-07-29T13:06:14;30.80;45.30
23377;DHT22;14353;46.070;13.222;2023-07-29T13:08:41;30.80;45.30
23377;DHT22;14353;46.070;13.222;2023-07-29T13:11:07;30.80;45.30
23377;DHT22;14353;46.070;13.222;2023-07-29T13:13:33;30.80;45.30
23377;DHT22;14353;46.070;13.222;2023-07-29T13:15:59;30.80;45.30
23377;DHT22;14353;46.070;13.222;2023-07-29T13:18:24;30.90;45.30
23377;DHT22;14353;46.070;13.222;2023-07-29T13:20:50;30.90;45.30
23377;DHT22;14353;46.070;13.222;2023-07-29T13:23:16;30.90;45.30
23377;DHT22;14353;46.070;13.222;2023-07-29T13:25:42;30.90;45.40
23377;DHT22;14353;46.070;13.222;2023-07-29T13:28:11;30.90;45.30
23377;DHT22;14353;46.070;13.222;2023-07-29T13:30:40;31.00;45.30
23377;DHT22;14353;46.070;13.222;2023-07-29T13:33:06;31.00;45.30
23377;DHT22;14353;46.070;13.222;2023-07-29T13:35:32;31.00;45.30
23377;DHT22;14353;46.070;13.222;2023-07-29T13:37:58;31.00;45.20
23377;DHT22;14353;46.070;13.222;2023-07-29T13:40:24;31.00;45.10
23377;DHT22;14353;46.070;13.222;2023-07-29T13:42:50;31.00;45.10
23377;DHT22;14353;46.070;13.222;2023-07-29T13:45:15;31.10;45.10
23377;DHT22;14353;46.070;13.222;2023-07-29T13:47:41;31.10;45.10
23377;DHT22;14353;46.070;13.222;2023-07-29T13:50:07;31.10;45.10
23377;DHT22;14353;46.070;13.222;2023-07-29T13:52:33;31.10;45.00
23377;DHT22;14353;46.070;13.222;2023-07-29T13:54:59;31.10;45.00
23377;DHT22;14353;46.070;13.222;2023-07-29T13:57:25;31.10;45.00
23377;DHT22;14353;46.070;13.222;2023-07-29T13:59:51;31.10;45.00
23377;DHT22;14353;46.070;13.222;2023-07-29T14:02:16;31.10;45.10
23377;DHT22;14353;46.070;13.222;2023-07-29T14:04:42;31.10;45.10
23377;DHT22;14353;46.070;13.222;2023-07-29T14:07:08;31.10;45.10
23377;DHT22;14353;46.070;13.222;2023-07-29T14:09:33;31.10;45.20
23377;DHT22;14353;46.070;13.222;2023-07-29T14:11:59;31.10;45.10
23377;DHT22;14353;46.070;13.222;2023-07-29T14:14:25;31.10;45.20
23377;DHT22;14353;46.070;13.222;2023-07-29T14:16:50;31.10;45.30
23377;DHT22;14353;46.070;13.222;2023-07-29T14:19:16;31.10;45.30
23377;DHT22;14353;46.070;13.222;2023-07-29T14:21:41;31.10;45.30
23377;DHT22;14353;46.070;13.222;2023-07-29T14:24:07;31.10;45.30
23377;DHT22;14353;46.070;13.222;2023-07-29T14:26:33;31.10;45.30
23377;DHT22;14353;46.070;13.222;2023-07-29T14:28:58;31.10;45.30
23377;DHT22;14353;46.070;13.222;2023-07-29T14:31:24;31.10;45.30
23377;DHT22;14353;46.070;13.222;2023-07-29T14:33:50;31.10;45.30
23377;DHT22;14353;46.070;13.222;2023-07-29T14:36:16;31.10;45.30
23377;DHT22;14353;46.070;13.222;2023-07-29T14:38:42;31.10;45.30
23377;DHT22;14353;46.070;13.222;2023-07-29T14:41:08;31.10;45.40
23377;DHT22;14353;46.070;13.222;2023-07-29T14:43:34;31.10;45.30
23377;DHT22;14353;46.070;13.222;2023-07-29T14:46:00;31.10;45.40
23377;DHT22;14353;46.070;13.222;2023-07-29T14:48:26;31.10;45.70
23377;DHT22;14353;46.070;13.222;2023-07-29T14:50:52;31.10;45.40
23377;DHT22;14353;46.070;13.222;2023-07-29T14:53:17;31.10;45.40
23377;DHT22;14353;46.070;13.222;2023-07-29T14:55:43;31.10;45.40
23377;DHT22;14353;46.070;13.222;2023-07-29T14:58:09;31.10;45.40
23377;DHT22;14353;46.070;13.222;2023-07-29T15:00:35;31.10;45.40
23377;DHT22;14353;46.070;13.222;2023-07-29T15:03:00;31.10;45.40
23377;DHT22;14353;46.070;13.222;2023-07-29T15:05:26;31.10;45.40
23377;DHT22;14353;46.070;13.222;2023-07-29T15:07:52;31.10;45.40
23377;DHT22;14353;46.070;13.222;2023-07-29T15:10:17;31.10;45.40
23377;DHT22;14353;46.070;13.222;2023-07-29T15:12:44;31.10;45.30
23377;DHT22;14353;46.070;13.222;2023-07-29T15:15:11;31.10;46.00
23377;DHT22;14353;46.070;13.222;2023-07-29T15:17:37;31.10;45.40
23377;DHT22;14353;46.070;13.222;2023-07-29T15:20:03;31.10;45.40
23377;DHT22;14353;46.070;13.222;2023-07-29T15:22:29;31.10;45.40
23377;DHT22;14353;46.070;13.222;2023-07-29T15:24:57;31.10;45.40
23377;DHT22;14353;46.070;13.222;2023-07-29T15:27:23;31.10;45.40